Groveport, OH

2:50 AM EDT on September 02, 2014 (GMT -0400)
Bolton | Change Station
CLOSE
Current Station
Airport
Location: Bolton Field,
Elevation: 906 ft
Nearby Weather Stations
Active Advisory: Flash Flood Watch

Elev 906 ft 39.90 °N, 83.14 °W | Updated 15 minutes ago

Mostly Cloudy
Mostly Cloudy
70 °F
Feels Like 70 °F
N
4
Wind Variable Wind from South

Today
High -- | Low -- °F
--% Chance of Precip.
Yesterday
High -- | Low -- °F
Precip. -- in
7:00 AM 8:01 PM
Waxing Crescent, 48% visible
Pressure 29.96 in
Visibility 7.0 miles
Clouds Mostly Cloudy 2000 ft
Mostly Cloudy 2700 ft
Dew Point 70 °F
Humidity 99%
Rainfall 0.00 in
Snow Depth Not available.
UV 0 out of 12
Pollen 9.90 out of 12
Ozone Good
PM2.5 Good
Flu Activity Not available.
METAR KTZR 020635Z AUTO 18003KT 7SM BKN020 BKN027 21/21 A2996 RMK AO2 T02120210

More Conditions Fewer Conditions

Pressure 29.96 in
Visibility 7.0 miles
Clouds Mostly Cloudy 2000 ft
Mostly Cloudy 2700 ft
Dew Point 70 °F
Humidity 99%
Rainfall 0.00 in
Snow Depth Not available.
UV 0 out of 12
Pollen 9.90 out of 12
Ozone Good
PM2.5 Good
Flu Activity Not available.
METAR KTZR 020635Z AUTO 18003KT 7SM BKN020 BKN027 21/21 A2996 RMK AO2 T02120210

More Conditions Fewer Conditions

10-Day Weather Forecast

Almanac

Astronomy

Sep. 02, 2014 Rise Set
Actual Time 7:00 AM EDT 8:01 PM EDT
Civil Twilight 6:32 AM EDT 8:28 PM EDT
Nautical Twilight 5:59 AM EDT 9:01 PM EDT
Astronomical Twilight 5:25 AM EDT 9:35 PM EDT
Moon 2:42 PM EDT 12:03 AM EDT
Length of Visible Light 13h 56m
Length of Day
13h 00m
Tomorrow will be 2m 31s shorter.
Waxing Crescent, 48% of the Moon is Illuminated
Today
Waxing Crescent
Sep 2
First Quarter
Sep 8
Full
Sep 15
Last Quarter
Sep 24
New

Today's Extremes

State Highs State Lows

Community

WunderPhotos

Upload Photos

1,749,589 photos uploaded!

WunderBlogs® & News

Nearby

Air Quality

  Air Quality AQ Index Pollutant
Yesterday Good
PM2.5
Yesterday Good
OZONE
Current Good
PM2.5
Current Good
OZONE
Tuesday Good
PM2.5
Tuesday Good
OZONE
Wednesday Moderate
PM2.5
Wednesday Moderate
OZONE
Thursday Moderate
OZONE
Thursday Moderate
PM2.5
Friday Moderate
OZONE
Friday Moderate
PM2.5
Saturday Good
OZONE
Saturday Good
PM2.5

Snow Depth

Station Depth Elevation
No new snow has been reported.

Earthquake Activity

City Distance Mag. Time & Date
No recent earthquake activity has been reported nearby.
Minimum magnitude displayed is 2.5.

Coastal Water Temperatures

Place Temperature
No Stations Reporting

Nearby Weather Stations